createdAt,value
2023-01-29T08:41:59.584Z,43.80
2023-01-29T08:44:35.195Z,39.65
2023-01-29T08:47:11.374Z,54.95
2023-01-29T08:52:29.485Z,44.97
2023-01-29T08:55:05.571Z,47.22
2023-01-29T08:57:41.545Z,48.55
2023-01-29T09:00:23.545Z,52.85
2023-01-29T09:03:20.151Z,47.90
2023-01-29T09:06:05.380Z,50.10
2023-01-29T09:09:16.357Z,53.30
2023-01-29T09:12:20.782Z,52.88
2023-01-29T09:15:32.516Z,49.27
2023-01-29T09:18:08.456Z,50.38
2023-01-29T09:23:32.441Z,52.53
2023-01-29T09:26:10.134Z,54.70
2023-01-29T09:28:46.268Z,52.90
2023-01-29T09:31:20.666Z,54.50
2023-01-29T09:33:55.259Z,54.65
2023-01-29T09:36:29.907Z,54.13
2023-01-29T09:39:00.679Z,54.90
2023-01-29T09:41:35.532Z,49.25
2023-01-29T09:44:16.592Z,55.05
2023-01-29T09:46:54.457Z,49.15
2023-01-29T09:49:29.542Z,59.40
2023-01-29T09:51:59.498Z,51.42
2023-01-29T09:54:30.287Z,54.92
2023-01-29T09:59:51.064Z,54.20
2023-01-29T10:02:24.491Z,49.37
2023-01-29T10:05:25.049Z,51.80
2023-01-29T10:07:59.061Z,50.40
2023-01-29T10:11:02.942Z,54.80
2023-01-29T10:13:55.220Z,60.70
2023-01-29T10:19:35.549Z,51.53
2023-01-29T10:22:13.088Z,55.20
2023-01-29T10:25:19.708Z,48.55
2023-01-29T10:27:57.154Z,50.50
2023-01-29T10:30:29.290Z,53.33
2023-01-29T10:33:06.492Z,50.40
2023-01-29T10:35:36.161Z,53.42
2023-01-29T10:38:41.376Z,52.15
2023-01-29T10:43:47.549Z,51.05
2023-01-29T10:46:47.652Z,49.60
2023-01-29T10:49:38.271Z,45.50
2023-01-29T10:52:12.615Z,47.45
2023-01-29T10:55:04.254Z,48.17
2023-01-29T10:57:40.137Z,47.63
2023-01-29T11:00:22.649Z,48.00
2023-01-29T11:02:57.951Z,42.33
2023-01-29T11:05:37.380Z,52.03
2023-01-29T11:08:15.408Z,45.08
2023-01-29T11:11:01.493Z,50.15
2023-01-29T11:13:37.994Z,47.15
2023-01-29T11:16:11.949Z,46.55
2023-01-29T11:19:13.286Z,48.65
2023-01-29T11:22:05.940Z,48.80
2023-01-29T11:24:43.670Z,47.35
2023-01-29T11:27:29.884Z,44.95
2023-01-29T11:30:05.086Z,48.67
2023-01-29T11:32:39.409Z,42.20
2023-01-29T11:35:16.547Z,48.60
2023-01-29T11:38:08.050Z,43.47
2023-01-29T11:40:43.647Z,51.05
2023-01-29T11:43:29.345Z,42.38
2023-01-29T11:46:05.305Z,45.20
2023-01-29T11:48:59.094Z,49.00
2023-01-29T11:51:37.702Z,49.65
2023-01-29T11:54:17.781Z,41.83
2023-01-29T11:56:45.194Z,52.45
2023-01-29T11:59:26.118Z,47.67
2023-01-29T12:01:53.547Z,45.45
2023-01-29T12:04:31.005Z,48.92
2023-01-29T12:06:59.319Z,51.65
2023-01-29T12:09:28.374Z,51.55
2023-01-29T12:12:18.254Z,46.40
2023-01-29T12:14:57.872Z,47.28
2023-01-29T12:17:34.629Z,42.30
2023-01-29T12:20:09.660Z,53.92
2023-01-29T12:23:00.164Z,48.10
2023-01-29T12:25:35.765Z,42.67
2023-01-29T12:28:26.313Z,45.85
2023-01-29T12:31:09.922Z,44.72
2023-01-29T12:33:45.240Z,40.50
2023-01-29T12:36:37.647Z,51.22
2023-01-29T12:39:12.549Z,42.65
2023-01-29T12:41:58.354Z,44.28
2023-01-29T12:44:42.792Z,45.10
2023-01-29T12:47:22.014Z,45.50
2023-01-29T12:50:06.424Z,50.08
2023-01-29T12:52:45.107Z,47.45
2023-01-29T12:55:20.507Z,48.40
2023-01-29T12:58:09.956Z,39.92
2023-01-29T13:00:45.068Z,41.55
2023-01-29T13:03:49.976Z,41.90
2023-01-29T13:06:24.544Z,44.67
2023-01-29T13:09:02.837Z,43.75
2023-01-29T13:11:36.735Z,38.47
2023-01-29T13:14:49.780Z,40.28
2023-01-29T13:17:24.569Z,38.58
2023-01-29T13:20:36.980Z,34.80
2023-01-29T13:29:56.253Z,43.10
2023-01-29T13:32:33.476Z,39.75
2023-01-29T13:35:16.096Z,38.80
2023-01-29T13:37:58.502Z,42.90
2023-01-29T13:40:44.057Z,40.25
2023-01-29T13:43:29.234Z,36.28
2023-01-29T13:46:13.399Z,37.47
2023-01-29T13:48:55.783Z,39.47
2023-01-29T13:51:48.429Z,43.13
2023-01-29T13:57:13.781Z,34.50
2023-01-29T13:59:51.360Z,38.85
2023-01-29T14:02:28.933Z,40.20
2023-01-29T14:05:03.240Z,37.20
2023-01-29T14:07:49.450Z,38.97
2023-01-29T14:10:23.752Z,39.65
2023-01-29T14:13:05.364Z,42.87
2023-01-29T14:18:22.059Z,39.20
2023-01-29T14:20:56.613Z,41.30
2023-01-29T14:23:42.243Z,38.30
2023-01-29T14:26:17.618Z,36.58
2023-01-29T14:28:57.649Z,37.50
2023-01-29T14:31:37.353Z,34.40
2023-01-29T14:34:30.270Z,38.20
2023-01-29T14:37:07.593Z,37.92
2023-01-29T14:39:53.232Z,42.45
2023-01-29T14:42:30.554Z,37.70
2023-01-29T14:45:11.644Z,42.40
2023-01-29T14:47:48.757Z,42.00
2023-01-29T14:50:29.497Z,41.60
2023-01-29T14:53:07.762Z,42.22
2023-01-29T14:55:51.446Z,47.75
2023-01-29T14:58:30.094Z,40.63
2023-01-29T15:01:15.451Z,45.45
2023-01-29T15:03:50.858Z,40.97
2023-01-29T15:06:24.981Z,42.83
2023-01-29T15:08:58.516Z,42.20
2023-01-29T15:11:37.258Z,38.42
2023-01-29T15:14:16.913Z,33.90
2023-01-29T15:16:47.859Z,38.92
2023-01-29T15:19:28.066Z,46.25
2023-01-29T15:22:36.505Z,38.10
2023-01-29T15:25:15.899Z,38.40
2023-01-29T15:27:44.665Z,38.17
2023-01-29T15:30:33.230Z,37.95
2023-01-29T15:33:10.690Z,37.10
2023-01-29T15:35:48.390Z,42.92
2023-01-29T15:38:28.381Z,38.53
2023-01-29T15:40:56.713Z,37.83
2023-01-29T15:43:28.322Z,41.78
